TS28 weather

Northeast Community Hospital Heliport
Bedford, Texas, United States

Public forecast

Using degrees Fahrenheit for public forecast. Weather courtesy of forecast.io.

METAR (pilot weather report)

Closest report is Dallas Fort Worth International Airport, 6.5 nm (12.1 km) ENE. Retrieved 2019/07/21 02:53 UTC (51 minutes ago):

KDFW 210253Z 15012KT 10SM BKN300 31/21 A2986 RMK AO2 SLP103 T03110206 51009

TAF (pilot weather forecast)

Forecast is more than 12 hours old.

Closest forecast is Dallas Fort Worth International Airport, 6.5 nm (12.1 km) ENE. Retrieved 2019/07/20 00:22 UTC (1 day ago):

TAF KDFW 202320Z 2100/2206 17015KT P6SM FEW250